Terminal Aerodrome Forecast
Issued by NWS

Home | Current Version | Previous Version | Text Only | Print | Product List | Glossary On
Versions: 1 2 3 4 5 6 7 8 9 10 11 12 13 14
000
FTUS41 KRNK 210520
TAFBCB
TAF
KBCB 210520Z 2106/2206 00000KT P6SM SKC
     FM210900 00000KT 4SM BR SCT008
     FM211100 00000KT 2SM BR SCT008
     FM211300 00000KT P6SM SCT250=

USA.gov is the U.S. government's official web portal to all federal, state and local government web resources and services.